Bowling Green, Florida
Current Conditions -  °F | °C
As of 6:15 PM on Saturday 25 Oct 2014 (Local Time) from KBOW Reporting Station
Clear Clear  
Wind Chill: 75°   Ceiling: Unl
Heat Index: 75°   Visibility: 10mi
Dew Point: 52°   Wind: 7mph
Humidity: 44%   Direction: 360°N
Pressure: 29.95"   Gusts: NA
Location:  27.64°N, 81.82°W
Report Text: KBOW 252215Z AUTO 36006KT 10SM CLR 24/11 A2995 RMK AO2
Loading
Personal Weather Stations






























Interactive Weather Map New forecast layout! Learn more

10-Day Weather Forecast

Advertisements
Track Severe Weather on mobile